CYPH

Inukjuak Airport

Inukjuak, Quebec, Canada
METAR CYPH 231604Z AUTO 28021G26KT 1 1/4SM -SN BKN020 M23/M26 A2976 RMK SLP082
Observed Flight Rules
Feb-23 @ 16:04 UTC (36 minutes ago) Instrument Flight Rules
Wind Visibility Clouds Conditions
280° at 21 knots
 Gusting to 26 knots
1 1/4 miles
  • Broken at 2,000' AGL
  • Light Snow
Temperatures Readings
Current -23°C / -9°F
Dewpoint -26°C / -15°F
Humidity 77%
Altimeter 29.76" Hg
Pressure 1008.2 hPa
Elevation 3
METAR CYPH 231604Z AUTO 28021G26KT 1 1/4SM -SN BKN020 M23/M26 A2976 RMK SLP082
Observed Flight Rules
Feb-23 @ 16:04 UTC
(36 minutes ago)
IFR
Wind Visibility
280° at 21 knots
 Gusting to 26 knots
1 1/4 miles
Clouds
  • Broken at 2,000' AGL
Conditions
  • Light Snow
Temperature Dewpoint
-23°C / -9°F -26°C / -15°F
Humidity Altimeter Pressure
77% 29.76" Hg 1008.2 hPa